Terminal Aerodrome Forecast
Issued by NWS Chicago, IL

Home | Current Version | Previous Version | Text Only | Print | Product List | Glossary Off
Versions: 1 2 3 4 5 6 7 8 9 10 11 12 13 14 15 16 17 18 19 20 21 22 23 24 25 26 27 28 29 30 31 32 33 34 35

000
FTUS43 KLOT 010300 AAA
TAFRFD
TAF AMD
KRFD 010312Z 0103/0124 17010KT P6SM SCT120
     FM010900 18010KT P6SM VCTS SCT040CB BKN080
      TEMPO 0109/0111 23010KT 5SM -SHRA OVC040
     FM011100 19008KT P6SM OVC100
     FM011600 23014G22KT P6SM SCT040 SCT300=

USA.gov is the U.S. government's official web portal to all federal, state and local government web resources and services.